sensor_id;sensor_type;location;lat;lon;timestamp;pressure;altitude;pressure_sealevel;temperature;humidity
64211;BME280;50528;48.514;14.394;2023-07-13T00:00:19;93780.26;;;20.06;73.26
64211;BME280;50528;48.514;14.394;2023-07-13T00:01:14;93782.66;;;20.01;73.23
64211;BME280;50528;48.514;14.394;2023-07-13T00:01:48;93781.89;;;20.00;73.32
64211;BME280;50528;48.514;14.394;2023-07-13T00:02:25;93776.65;;;20.01;73.44
64211;BME280;50528;48.514;14.394;2023-07-13T00:03:00;93775.20;;;20.01;73.48
64211;BME280;50528;48.514;14.394;2023-07-13T00:03:34;93776.91;;;20.02;73.50
64211;BME280;50528;48.514;14.394;2023-07-13T00:04:08;93773.91;;;20.01;73.59
64211;BME280;50528;48.514;14.394;2023-07-13T00:04:42;93778.66;;;20.06;73.71
64211;BME280;50528;48.514;14.394;2023-07-13T00:05:15;93780.49;;;20.07;73.79
64211;BME280;50528;48.514;14.394;2023-07-13T00:05:57;93776.66;;;20.07;73.76
64211;BME280;50528;48.514;14.394;2023-07-13T00:06:31;93777.28;;;20.06;73.68
64211;BME280;50528;48.514;14.394;2023-07-13T00:07:07;93779.17;;;20.09;74.03
64211;BME280;50528;48.514;14.394;2023-07-13T00:07:41;93780.83;;;20.10;73.81
64211;BME280;50528;48.514;14.394;2023-07-13T00:08:14;93777.42;;;20.09;73.57
64211;BME280;50528;48.514;14.394;2023-07-13T00:08:47;93776.19;;;20.10;73.76
64211;BME280;50528;48.514;14.394;2023-07-13T00:09:22;93771.44;;;20.08;73.66
64211;BME280;50528;48.514;14.394;2023-07-13T00:09:55;93772.40;;;20.09;73.64
64211;BME280;50528;48.514;14.394;2023-07-13T00:10:28;93772.42;;;20.08;73.70
64211;BME280;50528;48.514;14.394;2023-07-13T00:11:02;93774.01;;;20.12;73.45
64211;BME280;50528;48.514;14.394;2023-07-13T00:11:36;93768.55;;;20.15;73.53
64211;BME280;50528;48.514;14.394;2023-07-13T00:12:23;93770.04;;;20.15;73.50
64211;BME280;50528;48.514;14.394;2023-07-13T00:12:59;93774.41;;;20.11;73.41
64211;BME280;50528;48.514;14.394;2023-07-13T00:13:36;93772.70;;;20.07;73.78
64211;BME280;50528;48.514;14.394;2023-07-13T00:14:12;93774.79;;;20.05;73.71
64211;BME280;50528;48.514;14.394;2023-07-13T00:14:45;93775.50;;;20.07;74.04
64211;BME280;50528;48.514;14.394;2023-07-13T00:15:22;93778.08;;;20.08;74.36
64211;BME280;50528;48.514;14.394;2023-07-13T00:15:57;93773.73;;;20.07;74.41
64211;BME280;50528;48.514;14.394;2023-07-13T00:16:32;93773.71;;;20.03;74.29
64211;BME280;50528;48.514;14.394;2023-07-13T00:17:06;93768.14;;;20.02;74.65
64211;BME280;50528;48.514;14.394;2023-07-13T00:17:39;93765.31;;;19.99;74.38
64211;BME280;50528;48.514;14.394;2023-07-13T00:18:12;93763.27;;;19.98;74.41
64211;BME280;50528;48.514;14.394;2023-07-13T00:18:46;93763.59;;;20.00;74.28
64211;BME280;50528;48.514;14.394;2023-07-13T00:19:20;93760.98;;;19.98;74.33
64211;BME280;50528;48.514;14.394;2023-07-13T00:19:55;93760.86;;;20.05;74.22
64211;BME280;50528;48.514;14.394;2023-07-13T00:20:29;93757.10;;;20.06;74.10
64211;BME280;50528;48.514;14.394;2023-07-13T00:21:02;93756.48;;;20.02;74.15
64211;BME280;50528;48.514;14.394;2023-07-13T00:21:39;93753.66;;;19.96;74.47
64211;BME280;50528;48.514;14.394;2023-07-13T00:22:13;93753.48;;;19.93;74.72
64211;BME280;50528;48.514;14.394;2023-07-13T00:22:46;93754.89;;;19.92;74.66
64211;BME280;50528;48.514;14.394;2023-07-13T00:23:20;93753.92;;;19.89;74.77
64211;BME280;50528;48.514;14.394;2023-07-13T00:23:53;93761.55;;;19.91;74.62
64211;BME280;50528;48.514;14.394;2023-07-13T00:24:26;93766.75;;;19.90;74.57
64211;BME280;50528;48.514;14.394;2023-07-13T00:25:00;93770.88;;;19.89;74.88
64211;BME280;50528;48.514;14.394;2023-07-13T00:25:34;93775.25;;;19.95;74.84
64211;BME280;50528;48.514;14.394;2023-07-13T00:26:09;93773.38;;;19.87;74.69
64211;BME280;50528;48.514;14.394;2023-07-13T00:26:44;93775.61;;;19.81;75.12
64211;BME280;50528;48.514;14.394;2023-07-13T00:27:19;93769.45;;;19.78;75.16
64211;BME280;50528;48.514;14.394;2023-07-13T00:27:52;93768.80;;;19.79;75.56
64211;BME280;50528;48.514;14.394;2023-07-13T00:28:25;93763.52;;;19.80;75.49
64211;BME280;50528;48.514;14.394;2023-07-13T00:28:59;93766.17;;;19.83;75.51
64211;BME280;50528;48.514;14.394;2023-07-13T00:29:35;93761.55;;;19.82;75.40
64211;BME280;50528;48.514;14.394;2023-07-13T00:30:09;93758.55;;;19.78;75.28
64211;BME280;50528;48.514;14.394;2023-07-13T00:30:43;93759.50;;;19.77;75.29
64211;BME280;50528;48.514;14.394;2023-07-13T00:31:16;93757.48;;;19.77;75.50
64211;BME280;50528;48.514;14.394;2023-07-13T00:31:50;93756.90;;;19.74;75.34
64211;BME280;50528;48.514;14.394;2023-07-13T00:32:25;93758.31;;;19.75;75.37
64211;BME280;50528;48.514;14.394;2023-07-13T00:32:58;93755.61;;;19.74;75.32
64211;BME280;50528;48.514;14.394;2023-07-13T00:33:50;93747.31;;;19.72;75.43
64211;BME280;50528;48.514;14.394;2023-07-13T00:34:23;93751.64;;;19.73;75.58
64211;BME280;50528;48.514;14.394;2023-07-13T00:34:56;93749.42;;;19.74;75.59
64211;BME280;50528;48.514;14.394;2023-07-13T00:35:31;93745.09;;;19.75;75.70
64211;BME280;50528;48.514;14.394;2023-07-13T00:36:05;93747.11;;;19.75;75.76
64211;BME280;50528;48.514;14.394;2023-07-13T00:36:38;93751.66;;;19.79;76.00
64211;BME280;50528;48.514;14.394;2023-07-13T00:37:12;93749.41;;;19.81;75.74
64211;BME280;50528;48.514;14.394;2023-07-13T00:37:45;93751.30;;;19.80;75.64
64211;BME280;50528;48.514;14.394;2023-07-13T00:38:18;93747.07;;;19.77;75.66
64211;BME280;50528;48.514;14.394;2023-07-13T00:38:53;93746.84;;;19.76;75.72
64211;BME280;50528;48.514;14.394;2023-07-13T00:39:26;93748.98;;;19.75;76.13
64211;BME280;50528;48.514;14.394;2023-07-13T00:40:00;93746.86;;;19.81;76.14
64211;BME280;50528;48.514;14.394;2023-07-13T00:40:33;93741.80;;;19.85;75.86
64211;BME280;50528;48.514;14.394;2023-07-13T00:41:08;93743.40;;;19.85;75.71
64211;BME280;50528;48.514;14.394;2023-07-13T00:41:41;93735.59;;;19.81;75.87
64211;BME280;50528;48.514;14.394;2023-07-13T00:42:16;93733.23;;;19.80;75.85
64211;BME280;50528;48.514;14.394;2023-07-13T00:42:52;93731.10;;;19.78;76.05
64211;BME280;50528;48.514;14.394;2023-07-13T00:43:27;93729.80;;;19.76;76.19
64211;BME280;50528;48.514;14.394;2023-07-13T00:44:02;93731.00;;;19.71;76.34
64211;BME280;50528;48.514;14.394;2023-07-13T00:44:35;93728.98;;;19.69;76.61
64211;BME280;50528;48.514;14.394;2023-07-13T00:46:22;93723.73;;;19.70;76.53
64211;BME280;50528;48.514;14.394;2023-07-13T00:46:56;93726.08;;;19.70;76.21
64211;BME280;50528;48.514;14.394;2023-07-13T00:47:31;93722.78;;;19.65;76.28
64211;BME280;50528;48.514;14.394;2023-07-13T00:48:05;93725.40;;;19.63;76.37
64211;BME280;50528;48.514;14.394;2023-07-13T00:48:38;93726.92;;;19.60;76.26
64211;BME280;50528;48.514;14.394;2023-07-13T00:49:15;93725.30;;;19.54;76.48
64211;BME280;50528;48.514;14.394;2023-07-13T00:49:51;93720.48;;;19.53;76.26
64211;BME280;50528;48.514;14.394;2023-07-13T00:50:25;93722.91;;;19.51;76.36
64211;BME280;50528;48.514;14.394;2023-07-13T00:51:00;93721.86;;;19.50;76.47
64211;BME280;50528;48.514;14.394;2023-07-13T00:51:43;93721.63;;;19.47;76.41
64211;BME280;50528;48.514;14.394;2023-07-13T00:52:18;93730.77;;;19.47;76.56
64211;BME280;50528;48.514;14.394;2023-07-13T00:52:53;93731.80;;;19.46;76.59
64211;BME280;50528;48.514;14.394;2023-07-13T00:53:29;93725.21;;;19.47;77.17
64211;BME280;50528;48.514;14.394;2023-07-13T00:54:08;93727.65;;;19.52;77.23
64211;BME280;50528;48.514;14.394;2023-07-13T00:54:45;93722.84;;;19.53;77.13
64211;BME280;50528;48.514;14.394;2023-07-13T00:55:20;93728.73;;;19.58;77.06
64211;BME280;50528;48.514;14.394;2023-07-13T00:55:55;93724.08;;;19.56;77.16
64211;BME280;50528;48.514;14.394;2023-07-13T00:56:30;93726.93;;;19.57;77.06
64211;BME280;50528;48.514;14.394;2023-07-13T00:57:08;93728.11;;;19.61;76.94
64211;BME280;50528;48.514;14.394;2023-07-13T00:57:45;93730.91;;;19.60;76.46
64211;BME280;50528;48.514;14.394;2023-07-13T00:58:19;93735.77;;;19.60;76.31
64211;BME280;50528;48.514;14.394;2023-07-13T00:58:53;93734.86;;;19.55;76.50
64211;BME280;50528;48.514;14.394;2023-07-13T00:59:26;93734.20;;;19.48;76.49
64211;BME280;50528;48.514;14.394;2023-07-13T01:00:03;93732.05;;;19.46;76.86
64211;BME280;50528;48.514;14.394;2023-07-13T01:00:42;93737.11;;;19.39;76.87
64211;BME280;50528;48.514;14.394;2023-07-13T01:01:15;93735.99;;;19.46;77.05
64211;BME280;50528;48.514;14.394;2023-07-13T01:01:49;93737.05;;;19.46;76.98
64211;BME280;50528;48.514;14.394;2023-07-13T01:02:24;93740.80;;;19.44;77.08
64211;BME280;50528;48.514;14.394;2023-07-13T01:02:57;93744.97;;;19.45;77.00
64211;BME280;50528;48.514;14.394;2023-07-13T01:03:31;93741.05;;;19.44;76.84
64211;BME280;50528;48.514;14.394;2023-07-13T01:04:05;93744.78;;;19.47;77.03
64211;BME280;50528;48.514;14.394;2023-07-13T01:04:41;93744.61;;;19.38;77.06
64211;BME280;50528;48.514;14.394;2023-07-13T01:05:20;93744.07;;;19.29;77.30
64211;BME280;50528;48.514;14.394;2023-07-13T01:05:54;93741.58;;;19.24;77.79
64211;BME280;50528;48.514;14.394;2023-07-13T01:06:28;93742.69;;;19.29;77.60
64211;BME280;50528;48.514;14.394;2023-07-13T01:07:01;93746.59;;;19.28;77.66
64211;BME280;50528;48.514;14.394;2023-07-13T01:07:35;93751.46;;;19.22;77.89
64211;BME280;50528;48.514;14.394;2023-07-13T01:08:09;93754.20;;;19.17;77.99
64211;BME280;50528;48.514;14.394;2023-07-13T01:08:43;93757.43;;;19.15;78.23
64211;BME280;50528;48.514;14.394;2023-07-13T01:09:16;93765.14;;;19.18;77.88
64211;BME280;50528;48.514;14.394;2023-07-13T01:09:51;93765.74;;;19.14;78.34
64211;BME280;50528;48.514;14.394;2023-07-13T01:10:35;93773.25;;;19.06;78.65
64211;BME280;50528;48.514;14.394;2023-07-13T01:11:19;93776.83;;;18.99;78.72
64211;BME280;50528;48.514;14.394;2023-07-13T01:11:53;93781.79;;;18.94;78.97
64211;BME280;50528;48.514;14.394;2023-07-13T01:12:26;93786.42;;;18.94;79.24
64211;BME280;50528;48.514;14.394;2023-07-13T01:13:00;93789.55;;;18.92;79.13
64211;BME280;50528;48.514;14.394;2023-07-13T01:13:33;93791.95;;;18.92;79.35
64211;BME280;50528;48.514;14.394;2023-07-13T01:14:08;93795.31;;;18.92;79.47
64211;BME280;50528;48.514;14.394;2023-07-13T01:14:41;93794.47;;;18.93;79.70
64211;BME280;50528;48.514;14.394;2023-07-13T01:15:41;93797.91;;;18.95;79.53
64211;BME280;50528;48.514;14.394;2023-07-13T01:16:25;93802.31;;;18.98;79.68
64211;BME280;50528;48.514;14.394;2023-07-13T01:16:59;93798.74;;;19.12;79.54
64211;BME280;50528;48.514;14.394;2023-07-13T01:17:33;93799.44;;;19.08;79.63
64211;BME280;50528;48.514;14.394;2023-07-13T01:18:12;93800.97;;;18.96;79.93
64211;BME280;50528;48.514;14.394;2023-07-13T01:18:46;93801.02;;;18.93;80.09
64211;BME280;50528;48.514;14.394;2023-07-13T01:20:09;93804.52;;;18.99;80.17
64211;BME280;50528;48.514;14.394;2023-07-13T01:20:51;93800.13;;;18.98;80.32
64211;BME280;50528;48.514;14.394;2023-07-13T01:21:25;93801.55;;;18.96;80.37
64211;BME280;50528;48.514;14.394;2023-07-13T01:21:59;93804.45;;;18.92;80.48
64211;BME280;50528;48.514;14.394;2023-07-13T01:22:33;93796.09;;;18.88;80.68
64211;BME280;50528;48.514;14.394;2023-07-13T01:23:09;93796.73;;;18.93;80.91
64211;BME280;50528;48.514;14.394;2023-07-13T01:23:42;93791.66;;;19.00;80.60
64211;BME280;50528;48.514;14.394;2023-07-13T01:24:17;93789.66;;;19.01;80.82
64211;BME280;50528;48.514;14.394;2023-07-13T01:24:51;93786.52;;;18.94;80.66
64211;BME280;50528;48.514;14.394;2023-07-13T01:25:24;93793.27;;;18.99;80.85
64211;BME280;50528;48.514;14.394;2023-07-13T01:25:58;93796.91;;;18.96;80.87
64211;BME280;50528;48.514;14.394;2023-07-13T01:26:32;93797.23;;;18.95;80.92
64211;BME280;50528;48.514;14.394;2023-07-13T01:27:08;93794.79;;;19.01;81.38
64211;BME280;50528;48.514;14.394;2023-07-13T01:27:43;93786.66;;;19.00;81.27
64211;BME280;50528;48.514;14.394;2023-07-13T01:28:17;93790.70;;;19.01;81.28
64211;BME280;50528;48.514;14.394;2023-07-13T01:28:50;93798.17;;;18.97;81.62
64211;BME280;50528;48.514;14.394;2023-07-13T01:29:24;93784.63;;;18.96;81.55
64211;BME280;50528;48.514;14.394;2023-07-13T01:29:57;93793.21;;;19.00;81.81
64211;BME280;50528;48.514;14.394;2023-07-13T01:30:38;93787.71;;;18.98;81.72
64211;BME280;50528;48.514;14.394;2023-07-13T01:31:13;93788.27;;;18.97;81.54
64211;BME280;50528;48.514;14.394;2023-07-13T01:31:46;93787.31;;;18.99;81.81
64211;BME280;50528;48.514;14.394;2023-07-13T01:32:22;93788.45;;;19.01;81.79
64211;BME280;50528;48.514;14.394;2023-07-13T01:33:00;93789.30;;;19.03;81.77
64211;BME280;50528;48.514;14.394;2023-07-13T01:33:36;93784.75;;;19.07;82.13
64211;BME280;50528;48.514;14.394;2023-07-13T01:34:10;93786.39;;;19.19;82.07
64211;BME280;50528;48.514;14.394;2023-07-13T01:34:43;93786.76;;;19.21;81.72
64211;BME280;50528;48.514;14.394;2023-07-13T01:35:17;93788.80;;;19.15;81.74
64211;BME280;50528;48.514;14.394;2023-07-13T01:35:50;93793.21;;;19.21;82.24
64211;BME280;50528;48.514;14.394;2023-07-13T01:36:24;93788.98;;;19.20;81.74
64211;BME280;50528;48.514;14.394;2023-07-13T01:36:57;93791.66;;;19.19;82.14
64211;BME280;50528;48.514;14.394;2023-07-13T01:37:30;93788.05;;;19.17;82.00
64211;BME280;50528;48.514;14.394;2023-07-13T01:38:06;93786.02;;;19.14;82.16
64211;BME280;50528;48.514;14.394;2023-07-13T01:38:41;93781.39;;;19.12;81.95
64211;BME280;50528;48.514;14.394;2023-07-13T01:39:16;93786.13;;;19.07;82.07
64211;BME280;50528;48.514;14.394;2023-07-13T01:39:50;93792.47;;;19.14;82.37
64211;BME280;50528;48.514;14.394;2023-07-13T01:40:23;93786.06;;;19.10;82.07
64211;BME280;50528;48.514;14.394;2023-07-13T01:40:57;93787.70;;;19.06;82.31
64211;BME280;50528;48.514;14.394;2023-07-13T01:41:31;93786.48;;;19.08;82.58
64211;BME280;50528;48.514;14.394;2023-07-13T01:42:18;93789.58;;;19.10;82.17
64211;BME280;50528;48.514;14.394;2023-07-13T01:43:07;93791.35;;;19.07;82.73
64211;BME280;50528;48.514;14.394;2023-07-13T01:43:41;93789.86;;;19.14;82.39
64211;BME280;50528;48.514;14.394;2023-07-13T01:44:14;93788.80;;;19.16;82.17
64211;BME280;50528;48.514;14.394;2023-07-13T01:44:48;93787.02;;;19.15;82.11
64211;BME280;50528;48.514;14.394;2023-07-13T01:45:21;93792.44;;;19.08;82.36
64211;BME280;50528;48.514;14.394;2023-07-13T01:45:55;93787.66;;;19.10;82.47
64211;BME280;50528;48.514;14.394;2023-07-13T01:46:41;93788.79;;;19.08;82.49
64211;BME280;50528;48.514;14.394;2023-07-13T01:47:16;93797.32;;;19.08;82.63
64211;BME280;50528;48.514;14.394;2023-07-13T01:47:51;93796.63;;;19.09;82.41
64211;BME280;50528;48.514;14.394;2023-07-13T01:48:24;93795.85;;;19.15;82.64
64211;BME280;50528;48.514;14.394;2023-07-13T01:48:57;93799.13;;;19.16;82.57
64211;BME280;50528;48.514;14.394;2023-07-13T01:50:42;93798.73;;;19.06;82.29
64211;BME280;50528;48.514;14.394;2023-07-13T01:51:18;93800.77;;;19.01;82.13
64211;BME280;50528;48.514;14.394;2023-07-13T01:51:52;93799.70;;;19.01;82.30
64211;BME280;50528;48.514;14.394;2023-07-13T01:52:25;93797.98;;;19.03;82.53
64211;BME280;50528;48.514;14.394;2023-07-13T01:52:58;93798.87;;;19.04;82.45
64211;BME280;50528;48.514;14.394;2023-07-13T01:53:32;93801.76;;;19.07;82.53
64211;BME280;50528;48.514;14.394;2023-07-13T01:54:07;93803.34;;;19.12;82.80
64211;BME280;50528;48.514;14.394;2023-07-13T01:54:40;93803.61;;;19.12;82.74
64211;BME280;50528;48.514;14.394;2023-07-13T01:55:14;93808.80;;;19.10;82.74
64211;BME280;50528;48.514;14.394;2023-07-13T01:55:48;93804.56;;;19.15;82.65
64211;BME280;50528;48.514;14.394;2023-07-13T01:56:21;93808.27;;;19.18;82.33
64211;BME280;50528;48.514;14.394;2023-07-13T01:56:54;93809.34;;;19.15;82.30
64211;BME280;50528;48.514;14.394;2023-07-13T01:57:28;93808.14;;;19.14;82.35
64211;BME280;50528;48.514;14.394;2023-07-13T01:58:01;93807.73;;;19.13;82.46
64211;BME280;50528;48.514;14.394;2023-07-13T01:58:35;93816.18;;;19.12;82.50
64211;BME280;50528;48.514;14.394;2023-07-13T01:59:09;93814.77;;;19.13;82.60
64211;BME280;50528;48.514;14.394;2023-07-13T01:59:42;93811.30;;;19.11;82.95
64211;BME280;50528;48.514;14.394;2023-07-13T02:00:16;93815.15;;;19.12;82.80
64211;BME280;50528;48.514;14.394;2023-07-13T02:00:52;93815.31;;;19.13;82.79
64211;BME280;50528;48.514;14.394;2023-07-13T02:01:26;93815.54;;;19.14;82.75
64211;BME280;50528;48.514;14.394;2023-07-13T02:02:00;93817.80;;;19.14;82.81
64211;BME280;50528;48.514;14.394;2023-07-13T02:02:33;93817.52;;;19.14;82.56
64211;BME280;50528;48.514;14.394;2023-07-13T02:03:08;93817.27;;;19.15;82.51
64211;BME280;50528;48.514;14.394;2023-07-13T02:03:41;93819.60;;;19.19;82.60
64211;BME280;50528;48.514;14.394;2023-07-13T02:04:14;93826.13;;;19.28;82.85
64211;BME280;50528;48.514;14.394;2023-07-13T02:04:48;93821.88;;;19.29;82.65
64211;BME280;50528;48.514;14.394;2023-07-13T02:05:21;93821.76;;;19.30;82.63
64211;BME280;50528;48.514;14.394;2023-07-13T02:05:55;93821.42;;;19.26;82.65
64211;BME280;50528;48.514;14.394;2023-07-13T02:06:28;93818.61;;;19.27;82.84
64211;BME280;50528;48.514;14.394;2023-07-13T02:07:01;93820.77;;;19.26;82.43
64211;BME280;50528;48.514;14.394;2023-07-13T02:07:35;93821.80;;;19.23;82.53
64211;BME280;50528;48.514;14.394;2023-07-13T02:08:09;93819.95;;;19.27;82.79
64211;BME280;50528;48.514;14.394;2023-07-13T02:08:42;93818.25;;;19.27;82.69
64211;BME280;50528;48.514;14.394;2023-07-13T02:09:15;93814.54;;;19.24;82.65
64211;BME280;50528;48.514;14.394;2023-07-13T02:09:49;93817.23;;;19.28;82.88
64211;BME280;50528;48.514;14.394;2023-07-13T02:10:22;93817.97;;;19.27;82.89
64211;BME280;50528;48.514;14.394;2023-07-13T02:10:56;93815.86;;;19.25;82.75
64211;BME280;50528;48.514;14.394;2023-07-13T02:11:30;93818.05;;;19.26;83.02
64211;BME280;50528;48.514;14.394;2023-07-13T02:12:06;93816.77;;;19.29;82.99
64211;BME280;50528;48.514;14.394;2023-07-13T02:12:41;93812.10;;;19.30;82.94
64211;BME280;50528;48.514;14.394;2023-07-13T02:13:14;93815.94;;;19.31;82.90
64211;BME280;50528;48.514;14.394;2023-07-13T02:13:48;93815.10;;;19.29;82.73
64211;BME280;50528;48.514;14.394;2023-07-13T02:14:21;93813.17;;;19.30;82.92
64211;BME280;50528;48.514;14.394;2023-07-13T02:14:55;93812.23;;;19.29;82.68
64211;BME280;50528;48.514;14.394;2023-07-13T02:15:28;93812.45;;;19.31;82.76
64211;BME280;50528;48.514;14.394;2023-07-13T02:16:02;93814.37;;;19.33;82.76
64211;BME280;50528;48.514;14.394;2023-07-13T02:16:35;93814.58;;;19.34;82.59
64211;BME280;50528;48.514;14.394;2023-07-13T02:17:10;93813.48;;;19.35;82.59
64211;BME280;50528;48.514;14.394;2023-07-13T02:17:43;93814.85;;;19.36;82.62
64211;BME280;50528;48.514;14.394;2023-07-13T02:18:17;93811.95;;;19.37;82.60
64211;BME280;50528;48.514;14.394;2023-07-13T02:18:50;93810.13;;;19.39;82.41
64211;BME280;50528;48.514;14.394;2023-07-13T02:19:25;93810.36;;;19.40;82.31
64211;BME280;50528;48.514;14.394;2023-07-13T02:19:58;93807.58;;;19.42;82.43
64211;BME280;50528;48.514;14.394;2023-07-13T02:20:31;93809.98;;;19.46;82.43
64211;BME280;50528;48.514;14.394;2023-07-13T02:21:05;93807.60;;;19.44;82.17
64211;BME280;50528;48.514;14.394;2023-07-13T02:21:39;93813.46;;;19.45;82.16
64211;BME280;50528;48.514;14.394;2023-07-13T02:22:12;93814.45;;;19.44;82.07
64211;BME280;50528;48.514;14.394;2023-07-13T02:22:46;93814.14;;;19.44;82.07
64211;BME280;50528;48.514;14.394;2023-07-13T02:23:19;93812.61;;;19.46;82.05
64211;BME280;50528;48.514;14.394;2023-07-13T02:23:53;93811.34;;;19.46;81.85
64211;BME280;50528;48.514;14.394;2023-07-13T02:24:28;93813.57;;;19.46;81.83
64211;BME280;50528;48.514;14.394;2023-07-13T02:25:01;93811.16;;;19.46;81.82
64211;BME280;50528;48.514;14.394;2023-07-13T02:25:34;93812.59;;;19.47;81.78
64211;BME280;50528;48.514;14.394;2023-07-13T02:26:07;93816.17;;;19.46;81.87
64211;BME280;50528;48.514;14.394;2023-07-13T02:26:41;93812.52;;;19.48;81.94
64211;BME280;50528;48.514;14.394;2023-07-13T02:27:15;93811.38;;;19.51;81.69
64211;BME280;50528;48.514;14.394;2023-07-13T02:27:48;93813.13;;;19.54;81.36
64211;BME280;50528;48.514;14.394;2023-07-13T02:28:22;93814.92;;;19.51;81.10
64211;BME280;50528;48.514;14.394;2023-07-13T02:28:56;93811.82;;;19.49;81.00
64211;BME280;50528;48.514;14.394;2023-07-13T02:29:29;93816.89;;;19.48;80.99
64211;BME280;50528;48.514;14.394;2023-07-13T02:30:03;93813.70;;;19.50;81.02
64211;BME280;50528;48.514;14.394;2023-07-13T02:30:37;93811.66;;;19.53;80.52
64211;BME280;50528;48.514;14.394;2023-07-13T02:31:14;93814.80;;;19.50;80.34
64211;BME280;50528;48.514;14.394;2023-07-13T02:31:48;93817.09;;;19.46;80.41
64211;BME280;50528;48.514;14.394;2023-07-13T02:32:22;93817.30;;;19.43;80.53
64211;BME280;50528;48.514;14.394;2023-07-13T02:32:58;93817.89;;;19.43;80.57
64211;BME280;50528;48.514;14.394;2023-07-13T02:33:31;93820.72;;;19.48;79.99
64211;BME280;50528;48.514;14.394;2023-07-13T02:34:04;93820.32;;;19.41;79.87
64211;BME280;50528;48.514;14.394;2023-07-13T02:34:38;93818.77;;;19.38;80.13
64211;BME280;50528;48.514;14.394;2023-07-13T02:35:12;93815.32;;;19.36;80.03
64211;BME280;50528;48.514;14.394;2023-07-13T02:35:45;93816.73;;;19.38;80.08
64211;BME280;50528;48.514;14.394;2023-07-13T02:36:18;93817.48;;;19.37;80.07
64211;BME280;50528;48.514;14.394;2023-07-13T02:36:52;93813.15;;;19.36;80.11
64211;BME280;50528;48.514;14.394;2023-07-13T02:37:26;93814.00;;;19.36;80.00
64211;BME280;50528;48.514;14.394;2023-07-13T02:37:59;93811.10;;;19.44;79.84
64211;BME280;50528;48.514;14.394;2023-07-13T02:38:33;93812.73;;;19.42;79.59
64211;BME280;50528;48.514;14.394;2023-07-13T02:39:08;93810.52;;;19.39;79.77
64211;BME280;50528;48.514;14.394;2023-07-13T02:39:44;93809.95;;;19.35;79.83
64211;BME280;50528;48.514;14.394;2023-07-13T02:40:17;93808.00;;;19.35;79.94
64211;BME280;50528;48.514;14.394;2023-07-13T02:40:51;93807.11;;;19.37;79.85
64211;BME280;50528;48.514;14.394;2023-07-13T02:41:25;93805.98;;;19.38;79.68
64211;BME280;50528;48.514;14.394;2023-07-13T02:41:59;93804.09;;;19.36;79.77
64211;BME280;50528;48.514;14.394;2023-07-13T02:42:34;93798.71;;;19.37;79.80
64211;BME280;50528;48.514;14.394;2023-07-13T02:43:10;93805.61;;;19.37;79.75
64211;BME280;50528;48.514;14.394;2023-07-13T02:43:43;93805.55;;;19.35;79.66
64211;BME280;50528;48.514;14.394;2023-07-13T02:44:17;93804.67;;;19.35;79.56
64211;BME280;50528;48.514;14.394;2023-07-13T02:44:50;93804.21;;;19.32;79.49
64211;BME280;50528;48.514;14.394;2023-07-13T02:45:24;93805.59;;;19.28;79.63
64211;BME280;50528;48.514;14.394;2023-07-13T02:45:59;93805.92;;;19.25;79.56
64211;BME280;50528;48.514;14.394;2023-07-13T02:46:37;93806.06;;;19.23;79.57
64211;BME280;50528;48.514;14.394;2023-07-13T02:47:11;93803.73;;;19.24;79.77
64211;BME280;50528;48.514;14.394;2023-07-13T02:47:44;93802.96;;;19.24;79.68
64211;BME280;50528;48.514;14.394;2023-07-13T02:48:18;93807.46;;;19.26;79.73
64211;BME280;50528;48.514;14.394;2023-07-13T02:48:51;93805.39;;;19.26;79.84
64211;BME280;50528;48.514;14.394;2023-07-13T02:49:26;93808.16;;;19.26;79.82
64211;BME280;50528;48.514;14.394;2023-07-13T02:49:59;93806.23;;;19.26;79.59
64211;BME280;50528;48.514;14.394;2023-07-13T02:50:33;93810.47;;;19.25;79.58
64211;BME280;50528;48.514;14.394;2023-07-13T02:51:07;93809.27;;;19.23;79.74
64211;BME280;50528;48.514;14.394;2023-07-13T02:51:41;93807.40;;;19.23;79.82
64211;BME280;50528;48.514;14.394;2023-07-13T02:52:15;93809.42;;;19.24;79.77
64211;BME280;50528;48.514;14.394;2023-07-13T02:52:48;93809.61;;;19.25;79.67
64211;BME280;50528;48.514;14.394;2023-07-13T02:53:21;93811.86;;;19.27;79.79
64211;BME280;50528;48.514;14.394;2023-07-13T02:53:55;93810.33;;;19.27;79.62
64211;BME280;50528;48.514;14.394;2023-07-13T02:54:29;93808.38;;;19.26;79.66
64211;BME280;50528;48.514;14.394;2023-07-13T02:55:02;93810.38;;;19.25;79.95
64211;BME280;50528;48.514;14.394;2023-07-13T02:55:36;93809.78;;;19.25;79.74
64211;BME280;50528;48.514;14.394;2023-07-13T02:56:09;93807.05;;;19.27;79.96
64211;BME280;50528;48.514;14.394;2023-07-13T02:56:45;93806.45;;;19.30;79.77
64211;BME280;50528;48.514;14.394;2023-07-13T02:57:19;93803.15;;;19.31;79.61
64211;BME280;50528;48.514;14.394;2023-07-13T02:57:52;93804.08;;;19.29;79.74
64211;BME280;50528;48.514;14.394;2023-07-13T02:58:25;93800.27;;;19.27;79.73
64211;BME280;50528;48.514;14.394;2023-07-13T02:58:59;93799.95;;;19.26;79.69
64211;BME280;50528;48.514;14.394;2023-07-13T02:59:32;93803.04;;;19.28;79.66
64211;BME280;50528;48.514;14.394;2023-07-13T03:00:06;93804.09;;;19.28;79.65
64211;BME280;50528;48.514;14.394;2023-07-13T03:00:40;93801.32;;;19.26;79.70
64211;BME280;50528;48.514;14.394;2023-07-13T03:01:14;93804.05;;;19.26;79.93
64211;BME280;50528;48.514;14.394;2023-07-13T03:01:52;93800.34;;;19.25;80.00
64211;BME280;50528;48.514;14.394;2023-07-13T03:02:25;93801.64;;;19.28;79.68
64211;BME280;50528;48.514;14.394;2023-07-13T03:03:01;93798.11;;;19.22;79.70
64211;BME280;50528;48.514;14.394;2023-07-13T03:03:35;93801.14;;;19.24;80.14
64211;BME280;50528;48.514;14.394;2023-07-13T03:04:08;93800.77;;;19.21;79.96
64211;BME280;50528;48.514;14.394;2023-07-13T03:04:42;93797.36;;;19.20;79.99